This is the latest recevied weather packets stored in our database for station/object W8LMG. If no packets are shown the sender has not sent any weather packets the latest 10 day(s).
| Time | Temp. | Humidity | Pressure | Rain* | Wind** | Luminosity | Snow |
|---|---|---|---|---|---|---|---|
| 1776986531 | 22.22° C | 46% | 1014.6 hPa | 0 mm | - | 24 W/m² | - |
| 1776986228 | 22.78° C | 42% | 1014.7 hPa | 0 mm | - | 28 W/m² | - |
| 1776985925 | 22.78° C | 42% | 1014.8 hPa | 0 mm | - | 31 W/m² | - |
| 1776985622 | 22.78° C | 42% | 1014.7 hPa | 0 mm | - | 34 W/m² | - |
| 1776985317 | 23.33° C | 42% | 1014.6 hPa | 0 mm | - | 38 W/m² | - |
| 1776985013 | 23.33° C | 42% | 1014.6 hPa | 0 mm | - | 45 W/m² | - |
| 1776984709 | 23.89° C | 43% | 1014.8 hPa | 0 mm | - | 62 W/m² | - |
| 1776984405 | 23.89° C | 40% | 1014.8 hPa | 0 mm | - | 80 W/m² | - |
| 1776984101 | 24.44° C | 39% | 1014.8 hPa | 0 mm | - | 82 W/m² | - |
| 1776983796 | 25° C | 39% | 1014.9 hPa | 0 mm | - | 125 W/m² | - |
| 1776983493 | 25° C | 38% | 1014.9 hPa | 0 mm | - | 146 W/m² | - |
| 1776983190 | 25° C | 38% | 1014.9 hPa | 0 mm | - | 164 W/m² | - |
| 1776982888 | 25.56° C | 38% | 1014.9 hPa | 0 mm | - | 172 W/m² | - |
| 1776982585 | 25° C | 39% | 1014.7 hPa | 0 mm | - | 187 W/m² | - |
| 1776982280 | 25° C | 40% | 1014.8 hPa | 0 mm | - | 203 W/m² | - |
| 1776981975 | 25.56° C | 36% | 1014.9 hPa | 0 mm | - | 218 W/m² | - |
| 1776981670 | 25° C | 39% | 1014.7 hPa | 0 mm | - | 239 W/m² | - |
| 1776981366 | 25.56° C | 37% | 1014.9 hPa | 0 mm | - | 247 W/m² | - |
| 1776981062 | 25° C | 37% | 1014.8 hPa | 0 mm | - | 269 W/m² | - |
| 1776980758 | 25.56° C | 36% | 1014.8 hPa | 0 mm | - | 289 W/m² | - |
| 1776980455 | 25.56° C | 35% | 1014.9 hPa | 0 mm | - | 300 W/m² | - |
| 1776980151 | 25° C | 37% | 1014.6 hPa | 0 mm | - | 316 W/m² | - |
| 1776979847 | 25.56° C | 39% | 1014.7 hPa | 0 mm | - | 332 W/m² | - |
| 1776979544 | 25.56° C | 38% | 1014.6 hPa | 0 mm | - | 356 W/m² | - |
| 1776979239 | 25° C | 38% | 1014.6 hPa | 0 mm | - | 385 W/m² | - |
* Rain latest hour (hover to see other rain measurements)
** Current wind speed in m/s (hover to see current wind gust speed)